sensor_id;sensor_type;location;lat;lon;timestamp;pressure;altitude;pressure_sealevel;temperature;humidity
16481;BME280;44634;54.110;12.138;2023-01-25T00:00:45;103564.16;;;2.74;100.00
16481;BME280;44634;54.110;12.138;2023-01-25T00:03:13;103551.53;;;3.11;100.00
16481;BME280;44634;54.110;12.138;2023-01-25T00:05:41;103542.78;;;2.41;100.00
16481;BME280;44634;54.110;12.138;2023-01-25T00:08:08;103516.59;;;2.47;100.00
16481;BME280;44634;54.110;12.138;2023-01-25T00:10:36;103518.16;;;2.63;100.00
16481;BME280;44634;54.110;12.138;2023-01-25T00:13:04;103504.41;;;3.15;100.00
16481;BME280;44634;54.110;12.138;2023-01-25T00:15:32;103521.13;;;3.05;100.00
16481;BME280;44634;54.110;12.138;2023-01-25T00:18:01;103523.03;;;2.91;100.00
16481;BME280;44634;54.110;12.138;2023-01-25T00:20:29;103503.59;;;3.10;100.00
16481;BME280;44634;54.110;12.138;2023-01-25T00:22:56;103518.19;;;3.26;100.00
16481;BME280;44634;54.110;12.138;2023-01-25T00:25:24;103538.25;;;3.24;100.00
16481;BME280;44634;54.110;12.138;2023-01-25T00:27:52;103547.31;;;2.99;100.00
16481;BME280;44634;54.110;12.138;2023-01-25T00:30:20;103544.16;;;2.71;100.00
16481;BME280;44634;54.110;12.138;2023-01-25T00:32:52;103514.50;;;2.77;100.00
16481;BME280;44634;54.110;12.138;2023-01-25T00:35:22;103474.47;;;2.75;100.00
16481;BME280;44634;54.110;12.138;2023-01-25T00:37:51;103455.44;;;2.65;100.00
16481;BME280;44634;54.110;12.138;2023-01-25T00:40:20;103454.81;;;2.46;100.00
16481;BME280;44634;54.110;12.138;2023-01-25T00:42:47;103432.28;;;2.39;100.00
16481;BME280;44634;54.110;12.138;2023-01-25T00:45:15;103433.78;;;2.57;100.00
16481;BME280;44634;54.110;12.138;2023-01-25T00:47:44;103428.13;;;2.23;100.00
16481;BME280;44634;54.110;12.138;2023-01-25T00:50:12;103415.13;;;2.17;100.00
16481;BME280;44634;54.110;12.138;2023-01-25T00:52:41;103375.81;;;2.29;100.00
16481;BME280;44634;54.110;12.138;2023-01-25T00:55:09;103392.34;;;2.32;100.00
16481;BME280;44634;54.110;12.138;2023-01-25T00:57:36;103405.00;;;2.60;100.00
16481;BME280;44634;54.110;12.138;2023-01-25T01:00:05;103419.09;;;2.50;100.00
16481;BME280;44634;54.110;12.138;2023-01-25T01:02:34;103417.56;;;2.32;100.00
16481;BME280;44634;54.110;12.138;2023-01-25T01:05:01;103387.84;;;2.41;100.00
16481;BME280;44634;54.110;12.138;2023-01-25T01:07:29;103383.19;;;1.95;100.00
16481;BME280;44634;54.110;12.138;2023-01-25T01:09:59;103345.31;;;2.34;100.00
16481;BME280;44634;54.110;12.138;2023-01-25T01:12:27;103361.78;;;2.39;100.00
16481;BME280;44634;54.110;12.138;2023-01-25T01:14:54;103339.47;;;2.77;100.00
16481;BME280;44634;54.110;12.138;2023-01-25T01:17:23;103363.69;;;2.86;100.00
16481;BME280;44634;54.110;12.138;2023-01-25T01:19:51;103378.22;;;3.06;100.00
16481;BME280;44634;54.110;12.138;2023-01-25T01:22:18;103394.06;;;2.95;100.00
16481;BME280;44634;54.110;12.138;2023-01-25T01:24:46;103379.25;;;2.34;100.00
16481;BME280;44634;54.110;12.138;2023-01-25T01:27:16;103378.53;;;2.84;100.00
16481;BME280;44634;54.110;12.138;2023-01-25T01:29:43;103374.50;;;2.63;100.00
16481;BME280;44634;54.110;12.138;2023-01-25T01:32:12;103364.66;;;2.81;100.00
16481;BME280;44634;54.110;12.138;2023-01-25T01:34:40;103368.00;;;2.27;100.00
16481;BME280;44634;54.110;12.138;2023-01-25T01:37:07;103335.81;;;2.28;100.00
16481;BME280;44634;54.110;12.138;2023-01-25T01:39:35;103321.69;;;2.42;100.00
16481;BME280;44634;54.110;12.138;2023-01-25T01:42:03;103312.31;;;1.58;100.00
16481;BME280;44634;54.110;12.138;2023-01-25T01:44:47;103267.34;;;2.09;100.00
16481;BME280;44634;54.110;12.138;2023-01-25T01:47:19;103267.84;;;2.36;100.00
16481;BME280;44634;54.110;12.138;2023-01-25T01:49:52;103278.06;;;2.51;100.00
16481;BME280;44634;54.110;12.138;2023-01-25T01:52:24;103292.47;;;2.77;100.00
16481;BME280;44634;54.110;12.138;2023-01-25T01:54:57;103288.06;;;2.79;100.00
16481;BME280;44634;54.110;12.138;2023-01-25T01:57:30;103307.28;;;2.76;100.00
16481;BME280;44634;54.110;12.138;2023-01-25T02:00:03;103314.94;;;2.27;100.00
16481;BME280;44634;54.110;12.138;2023-01-25T02:02:32;103299.19;;;2.91;100.00
16481;BME280;44634;54.110;12.138;2023-01-25T02:05:04;103325.47;;;2.21;100.00
16481;BME280;44634;54.110;12.138;2023-01-25T02:07:35;103296.28;;;1.91;100.00
16481;BME280;44634;54.110;12.138;2023-01-25T02:10:05;103267.94;;;2.28;100.00
16481;BME280;44634;54.110;12.138;2023-01-25T02:12:34;103271.88;;;2.55;100.00
16481;BME280;44634;54.110;12.138;2023-01-25T02:15:05;103265.66;;;2.64;100.00
16481;BME280;44634;54.110;12.138;2023-01-25T02:17:36;103277.94;;;1.97;100.00
16481;BME280;44634;54.110;12.138;2023-01-25T02:20:10;103251.97;;;1.87;100.00
16481;BME280;44634;54.110;12.138;2023-01-25T02:22:46;103239.00;;;1.82;100.00
16481;BME280;44634;54.110;12.138;2023-01-25T02:25:20;103224.88;;;1.97;100.00
16481;BME280;44634;54.110;12.138;2023-01-25T02:27:50;103230.00;;;2.06;100.00
16481;BME280;44634;54.110;12.138;2023-01-25T02:30:20;103233.13;;;1.66;100.00
16481;BME280;44634;54.110;12.138;2023-01-25T02:32:49;103225.75;;;1.97;100.00
16481;BME280;44634;54.110;12.138;2023-01-25T02:35:19;103237.38;;;1.72;100.00
16481;BME280;44634;54.110;12.138;2023-01-25T02:37:47;103223.50;;;1.70;100.00
16481;BME280;44634;54.110;12.138;2023-01-25T02:40:16;103200.72;;;1.84;100.00
16481;BME280;44634;54.110;12.138;2023-01-25T02:42:45;103198.59;;;1.44;100.00
16481;BME280;44634;54.110;12.138;2023-01-25T02:45:15;103182.34;;;1.93;100.00
16481;BME280;44634;54.110;12.138;2023-01-25T02:47:45;103186.69;;;1.93;100.00
16481;BME280;44634;54.110;12.138;2023-01-25T02:50:14;103188.06;;;1.55;100.00
16481;BME280;44634;54.110;12.138;2023-01-25T02:52:42;103179.91;;;1.79;100.00
16481;BME280;44634;54.110;12.138;2023-01-25T02:55:10;103182.09;;;1.44;100.00
16481;BME280;44634;54.110;12.138;2023-01-25T02:57:38;103158.75;;;1.99;100.00
16481;BME280;44634;54.110;12.138;2023-01-25T03:00:08;103163.75;;;2.15;100.00
16481;BME280;44634;54.110;12.138;2023-01-25T03:02:36;103160.75;;;1.14;100.00
16481;BME280;44634;54.110;12.138;2023-01-25T03:05:05;103154.06;;;1.64;100.00
16481;BME280;44634;54.110;12.138;2023-01-25T03:07:33;103142.22;;;2.00;100.00
16481;BME280;44634;54.110;12.138;2023-01-25T03:10:01;103145.94;;;1.84;100.00
16481;BME280;44634;54.110;12.138;2023-01-25T03:12:28;103141.91;;;1.63;100.00
16481;BME280;44634;54.110;12.138;2023-01-25T03:14:56;103130.91;;;2.03;100.00
16481;BME280;44634;54.110;12.138;2023-01-25T03:17:25;103138.00;;;1.30;100.00
16481;BME280;44634;54.110;12.138;2023-01-25T03:19:53;103141.34;;;1.40;100.00
16481;BME280;44634;54.110;12.138;2023-01-25T03:22:21;103137.34;;;1.77;100.00
16481;BME280;44634;54.110;12.138;2023-01-25T03:24:49;103126.47;;;2.06;100.00
16481;BME280;44634;54.110;12.138;2023-01-25T03:27:16;103135.47;;;2.41;100.00
16481;BME280;44634;54.110;12.138;2023-01-25T03:29:45;103134.88;;;1.67;100.00
16481;BME280;44634;54.110;12.138;2023-01-25T03:32:12;103129.53;;;1.77;100.00
16481;BME280;44634;54.110;12.138;2023-01-25T03:34:42;103129.72;;;2.21;100.00
16481;BME280;44634;54.110;12.138;2023-01-25T03:37:09;103115.63;;;2.32;100.00
16481;BME280;44634;54.110;12.138;2023-01-25T03:39:37;103134.63;;;1.85;100.00
16481;BME280;44634;54.110;12.138;2023-01-25T03:42:05;103128.91;;;2.16;100.00
16481;BME280;44634;54.110;12.138;2023-01-25T03:44:33;103119.91;;;1.81;100.00
16481;BME280;44634;54.110;12.138;2023-01-25T03:47:01;103114.66;;;1.83;100.00
16481;BME280;44634;54.110;12.138;2023-01-25T03:49:29;103116.22;;;1.34;100.00
16481;BME280;44634;54.110;12.138;2023-01-25T03:51:58;103111.25;;;1.14;100.00
16481;BME280;44634;54.110;12.138;2023-01-25T03:54:26;103112.38;;;0.92;100.00
16481;BME280;44634;54.110;12.138;2023-01-25T03:56:54;103104.63;;;1.55;100.00
16481;BME280;44634;54.110;12.138;2023-01-25T03:59:21;103101.94;;;1.61;100.00
16481;BME280;44634;54.110;12.138;2023-01-25T04:01:49;103099.34;;;1.61;100.00
16481;BME280;44634;54.110;12.138;2023-01-25T04:04:17;103096.47;;;1.15;100.00
16481;BME280;44634;54.110;12.138;2023-01-25T04:06:45;103097.94;;;1.37;100.00
16481;BME280;44634;54.110;12.138;2023-01-25T04:09:14;103086.94;;;1.77;100.00
16481;BME280;44634;54.110;12.138;2023-01-25T04:11:42;103081.63;;;1.83;100.00
16481;BME280;44634;54.110;12.138;2023-01-25T04:14:10;103074.53;;;1.91;100.00
16481;BME280;44634;54.110;12.138;2023-01-25T04:16:38;103082.78;;;1.64;100.00
16481;BME280;44634;54.110;12.138;2023-01-25T04:19:06;103086.41;;;1.54;100.00
16481;BME280;44634;54.110;12.138;2023-01-25T04:21:34;103083.25;;;1.32;100.00
16481;BME280;44634;54.110;12.138;2023-01-25T04:24:01;103075.44;;;1.32;100.00
16481;BME280;44634;54.110;12.138;2023-01-25T04:26:31;103074.75;;;1.17;100.00
16481;BME280;44634;54.110;12.138;2023-01-25T04:28:58;103074.03;;;1.68;100.00
16481;BME280;44634;54.110;12.138;2023-01-25T04:31:26;103065.41;;;1.64;100.00
16481;BME280;44634;54.110;12.138;2023-01-25T04:33:54;103061.44;;;1.94;100.00
16481;BME280;44634;54.110;12.138;2023-01-25T04:36:22;103067.38;;;1.48;100.00
16481;BME280;44634;54.110;12.138;2023-01-25T04:38:50;103055.22;;;1.47;100.00
16481;BME280;44634;54.110;12.138;2023-01-25T04:41:17;103062.59;;;1.15;100.00
16481;BME280;44634;54.110;12.138;2023-01-25T04:43:46;103069.47;;;1.22;100.00
16481;BME280;44634;54.110;12.138;2023-01-25T04:46:14;103063.53;;;1.74;100.00
16481;BME280;44634;54.110;12.138;2023-01-25T04:48:42;103046.06;;;1.19;100.00
16481;BME280;44634;54.110;12.138;2023-01-25T04:51:10;103052.00;;;1.30;100.00
16481;BME280;44634;54.110;12.138;2023-01-25T04:53:39;103053.25;;;1.02;100.00
16481;BME280;44634;54.110;12.138;2023-01-25T04:56:07;103068.59;;;0.48;100.00
16481;BME280;44634;54.110;12.138;2023-01-25T04:58:35;103057.59;;;1.63;100.00
16481;BME280;44634;54.110;12.138;2023-01-25T05:01:04;103039.09;;;1.21;100.00
16481;BME280;44634;54.110;12.138;2023-01-25T05:03:32;103043.53;;;1.11;100.00
16481;BME280;44634;54.110;12.138;2023-01-25T05:06:00;103049.06;;;1.52;100.00
16481;BME280;44634;54.110;12.138;2023-01-25T05:08:29;103037.13;;;1.37;100.00
16481;BME280;44634;54.110;12.138;2023-01-25T05:10:57;103029.41;;;1.86;100.00
16481;BME280;44634;54.110;12.138;2023-01-25T05:13:24;103037.56;;;1.05;100.00
16481;BME280;44634;54.110;12.138;2023-01-25T05:15:54;103024.38;;;1.15;100.00
16481;BME280;44634;54.110;12.138;2023-01-25T05:18:24;103026.19;;;1.69;100.00
16481;BME280;44634;54.110;12.138;2023-01-25T05:21:01;103023.22;;;1.36;100.00
16481;BME280;44634;54.110;12.138;2023-01-25T05:23:29;103019.38;;;1.62;100.00
16481;BME280;44634;54.110;12.138;2023-01-25T05:25:56;103003.91;;;1.49;100.00
16481;BME280;44634;54.110;12.138;2023-01-25T05:28:42;103020.22;;;1.64;100.00
16481;BME280;44634;54.110;12.138;2023-01-25T05:31:09;103015.06;;;0.98;100.00
16481;BME280;44634;54.110;12.138;2023-01-25T05:33:39;103017.13;;;0.71;100.00
16481;BME280;44634;54.110;12.138;2023-01-25T05:36:07;103009.81;;;1.01;100.00
16481;BME280;44634;54.110;12.138;2023-01-25T05:38:34;103012.78;;;0.75;100.00
16481;BME280;44634;54.110;12.138;2023-01-25T05:41:02;103019.44;;;0.96;100.00
16481;BME280;44634;54.110;12.138;2023-01-25T05:43:30;103017.75;;;0.92;100.00
16481;BME280;44634;54.110;12.138;2023-01-25T05:45:58;103009.56;;;1.21;100.00
16481;BME280;44634;54.110;12.138;2023-01-25T05:48:26;103004.22;;;0.64;100.00
16481;BME280;44634;54.110;12.138;2023-01-25T05:50:57;103018.25;;;0.50;100.00
16481;BME280;44634;54.110;12.138;2023-01-25T05:53:25;103019.03;;;0.57;100.00
16481;BME280;44634;54.110;12.138;2023-01-25T05:55:53;103017.84;;;0.87;100.00
16481;BME280;44634;54.110;12.138;2023-01-25T05:58:21;103007.44;;;0.82;100.00
16481;BME280;44634;54.110;12.138;2023-01-25T06:00:49;102997.31;;;1.26;100.00
16481;BME280;44634;54.110;12.138;2023-01-25T06:03:17;102981.00;;;1.13;100.00
16481;BME280;44634;54.110;12.138;2023-01-25T06:05:44;102977.09;;;1.41;100.00
16481;BME280;44634;54.110;12.138;2023-01-25T06:08:13;102983.84;;;1.55;100.00
16481;BME280;44634;54.110;12.138;2023-01-25T06:10:41;102987.13;;;1.09;100.00
16481;BME280;44634;54.110;12.138;2023-01-25T06:13:09;102995.28;;;0.84;100.00
16481;BME280;44634;54.110;12.138;2023-01-25T06:15:37;102987.91;;;1.15;100.00
16481;BME280;44634;54.110;12.138;2023-01-25T06:18:05;102990.72;;;1.02;100.00
16481;BME280;44634;54.110;12.138;2023-01-25T06:20:32;102986.91;;;1.26;100.00
16481;BME280;44634;54.110;12.138;2023-01-25T06:23:00;102981.69;;;1.26;100.00
16481;BME280;44634;54.110;12.138;2023-01-25T06:25:29;102988.69;;;1.22;100.00
16481;BME280;44634;54.110;12.138;2023-01-25T06:27:57;102988.06;;;1.06;100.00
16481;BME280;44634;54.110;12.138;2023-01-25T06:30:25;102981.69;;;1.26;100.00
16481;BME280;44634;54.110;12.138;2023-01-25T06:32:52;102974.50;;;1.40;100.00
16481;BME280;44634;54.110;12.138;2023-01-25T06:35:20;102987.03;;;1.15;100.00
16481;BME280;44634;54.110;12.138;2023-01-25T06:37:48;102982.25;;;1.46;100.00
16481;BME280;44634;54.110;12.138;2023-01-25T06:40:16;102990.78;;;1.56;100.00
16481;BME280;44634;54.110;12.138;2023-01-25T06:42:45;102990.50;;;1.74;100.00
16481;BME280;44634;54.110;12.138;2023-01-25T06:45:13;102987.53;;;1.40;100.00
16481;BME280;44634;54.110;12.138;2023-01-25T06:47:41;103000.13;;;1.69;100.00
16481;BME280;44634;54.110;12.138;2023-01-25T06:50:09;102986.06;;;1.79;100.00
16481;BME280;44634;54.110;12.138;2023-01-25T06:52:37;102984.78;;;2.03;100.00
16481;BME280;44634;54.110;12.138;2023-01-25T06:55:06;102991.97;;;1.90;100.00
16481;BME280;44634;54.110;12.138;2023-01-25T06:57:38;102986.25;;;1.67;100.00
16481;BME280;44634;54.110;12.138;2023-01-25T07:00:09;102989.09;;;1.52;100.00
16481;BME280;44634;54.110;12.138;2023-01-25T07:02:37;102994.28;;;1.55;100.00
16481;BME280;44634;54.110;12.138;2023-01-25T07:05:06;102987.91;;;1.17;100.00
16481;BME280;44634;54.110;12.138;2023-01-25T07:07:34;102988.88;;;1.08;100.00
16481;BME280;44634;54.110;12.138;2023-01-25T07:10:02;102979.47;;;1.57;100.00
16481;BME280;44634;54.110;12.138;2023-01-25T07:12:30;102982.81;;;1.65;100.00
16481;BME280;44634;54.110;12.138;2023-01-25T07:14:58;102975.25;;;1.49;100.00
16481;BME280;44634;54.110;12.138;2023-01-25T07:17:27;102974.50;;;1.41;100.00
16481;BME280;44634;54.110;12.138;2023-01-25T07:19:54;102974.59;;;0.74;100.00
16481;BME280;44634;54.110;12.138;2023-01-25T07:22:22;102960.16;;;1.13;100.00
16481;BME280;44634;54.110;12.138;2023-01-25T07:24:50;102961.91;;;1.11;100.00
16481;BME280;44634;54.110;12.138;2023-01-25T07:27:19;102971.91;;;0.80;100.00
16481;BME280;44634;54.110;12.138;2023-01-25T07:29:47;102959.47;;;1.02;100.00
16481;BME280;44634;54.110;12.138;2023-01-25T07:32:14;102957.16;;;1.39;100.00
16481;BME280;44634;54.110;12.138;2023-01-25T07:34:43;102955.75;;;1.18;100.00
16481;BME280;44634;54.110;12.138;2023-01-25T07:37:11;102962.75;;;0.50;100.00
16481;BME280;44634;54.110;12.138;2023-01-25T07:39:39;102957.13;;;0.82;100.00
16481;BME280;44634;54.110;12.138;2023-01-25T07:42:13;102962.06;;;1.00;100.00
16481;BME280;44634;54.110;12.138;2023-01-25T07:44:41;102954.03;;;1.69;100.00
16481;BME280;44634;54.110;12.138;2023-01-25T07:47:09;102954.00;;;1.18;100.00
16481;BME280;44634;54.110;12.138;2023-01-25T07:49:37;102951.75;;;1.51;100.00
16481;BME280;44634;54.110;12.138;2023-01-25T07:52:06;102957.72;;;1.58;100.00
16481;BME280;44634;54.110;12.138;2023-01-25T07:54:34;102955.69;;;1.23;100.00
16481;BME280;44634;54.110;12.138;2023-01-25T07:57:01;102964.78;;;1.51;100.00
16481;BME280;44634;54.110;12.138;2023-01-25T07:59:29;102950.38;;;1.27;100.00
16481;BME280;44634;54.110;12.138;2023-01-25T08:01:57;102939.06;;;1.31;100.00
16481;BME280;44634;54.110;12.138;2023-01-25T08:04:25;102935.47;;;1.37;100.00
16481;BME280;44634;54.110;12.138;2023-01-25T08:06:53;102923.31;;;1.37;100.00
16481;BME280;44634;54.110;12.138;2023-01-25T08:09:22;102929.19;;;0.93;100.00
16481;BME280;44634;54.110;12.138;2023-01-25T08:11:50;102913.59;;;1.47;100.00
16481;BME280;44634;54.110;12.138;2023-01-25T08:14:19;102917.59;;;1.12;100.00
16481;BME280;44634;54.110;12.138;2023-01-25T08:16:46;102918.91;;;0.84;100.00
16481;BME280;44634;54.110;12.138;2023-01-25T08:19:14;102920.78;;;0.74;100.00
16481;BME280;44634;54.110;12.138;2023-01-25T08:21:42;102895.38;;;0.90;100.00
16481;BME280;44634;54.110;12.138;2023-01-25T08:24:10;102916.50;;;0.69;100.00
16481;BME280;44634;54.110;12.138;2023-01-25T08:26:39;102904.94;;;0.89;100.00
16481;BME280;44634;54.110;12.138;2023-01-25T08:29:10;102895.94;;;1.10;100.00
16481;BME280;44634;54.110;12.138;2023-01-25T08:31:39;102906.50;;;1.03;100.00
16481;BME280;44634;54.110;12.138;2023-01-25T08:34:09;102897.59;;;1.16;100.00
16481;BME280;44634;54.110;12.138;2023-01-25T08:36:37;102887.97;;;1.19;100.00
16481;BME280;44634;54.110;12.138;2023-01-25T08:39:06;102895.22;;;1.01;100.00
16481;BME280;44634;54.110;12.138;2023-01-25T08:41:34;102900.63;;;0.88;100.00
16481;BME280;44634;54.110;12.138;2023-01-25T08:44:04;102893.47;;;1.03;100.00
16481;BME280;44634;54.110;12.138;2023-01-25T08:46:32;102886.56;;;0.99;100.00
16481;BME280;44634;54.110;12.138;2023-01-25T08:49:01;102870.00;;;1.04;100.00
16481;BME280;44634;54.110;12.138;2023-01-25T08:51:30;102866.31;;;1.17;100.00
16481;BME280;44634;54.110;12.138;2023-01-25T08:54:01;102871.06;;;0.91;100.00
16481;BME280;44634;54.110;12.138;2023-01-25T08:56:29;102852.81;;;1.43;100.00
16481;BME280;44634;54.110;12.138;2023-01-25T08:58:57;102862.22;;;1.03;100.00
16481;BME280;44634;54.110;12.138;2023-01-25T09:01:26;102855.53;;;0.83;100.00
16481;BME280;44634;54.110;12.138;2023-01-25T09:03:54;102853.78;;;0.87;100.00
16481;BME280;44634;54.110;12.138;2023-01-25T09:06:22;102848.59;;;0.84;100.00
16481;BME280;44634;54.110;12.138;2023-01-25T09:08:49;102844.41;;;0.75;100.00
16481;BME280;44634;54.110;12.138;2023-01-25T09:11:19;102839.88;;;0.86;100.00
16481;BME280;44634;54.110;12.138;2023-01-25T09:13:48;102846.03;;;1.35;100.00
16481;BME280;44634;54.110;12.138;2023-01-25T09:16:18;102844.97;;;0.94;100.00
16481;BME280;44634;54.110;12.138;2023-01-25T09:18:55;102841.44;;;0.97;100.00
16481;BME280;44634;54.110;12.138;2023-01-25T09:21:23;102842.69;;;0.74;100.00
16481;BME280;44634;54.110;12.138;2023-01-25T09:23:52;102840.19;;;0.67;100.00
16481;BME280;44634;54.110;12.138;2023-01-25T09:26:32;102831.31;;;0.78;100.00
16481;BME280;44634;54.110;12.138;2023-01-25T09:29:00;102832.94;;;0.87;100.00
16481;BME280;44634;54.110;12.138;2023-01-25T09:31:28;102847.63;;;0.28;100.00
16481;BME280;44634;54.110;12.138;2023-01-25T09:33:58;102835.53;;;0.87;100.00
16481;BME280;44634;54.110;12.138;2023-01-25T09:36:26;102837.00;;;0.46;100.00
16481;BME280;44634;54.110;12.138;2023-01-25T09:38:54;102833.78;;;0.86;100.00
16481;BME280;44634;54.110;12.138;2023-01-25T09:41:37;102833.72;;;0.92;100.00
16481;BME280;44634;54.110;12.138;2023-01-25T09:44:18;102821.63;;;0.86;100.00
16481;BME280;44634;54.110;12.138;2023-01-25T09:46:53;102821.69;;;0.83;100.00
16481;BME280;44634;54.110;12.138;2023-01-25T09:49:38;102827.69;;;1.39;100.00
16481;BME280;44634;54.110;12.138;2023-01-25T09:52:30;102819.56;;;1.56;100.00
16481;BME280;44634;54.110;12.138;2023-01-25T09:55:11;102832.59;;;1.56;100.00
16481;BME280;44634;54.110;12.138;2023-01-25T09:57:41;102848.44;;;1.93;100.00
16481;BME280;44634;54.110;12.138;2023-01-25T10:00:18;102856.34;;;2.30;100.00
16481;BME280;44634;54.110;12.138;2023-01-25T10:02:51;102896.88;;;1.57;100.00
16481;BME280;44634;54.110;12.138;2023-01-25T10:05:25;102877.72;;;1.61;100.00
16481;BME280;44634;54.110;12.138;2023-01-25T10:07:58;102876.34;;;1.40;100.00
16481;BME280;44634;54.110;12.138;2023-01-25T10:10:32;102866.75;;;0.90;100.00
16481;BME280;44634;54.110;12.138;2023-01-25T10:13:02;102850.44;;;1.31;100.00
16481;BME280;44634;54.110;12.138;2023-01-25T10:15:35;102868.25;;;1.05;100.00
16481;BME280;44634;54.110;12.138;2023-01-25T10:18:16;102857.53;;;1.23;100.00
16481;BME280;44634;54.110;12.138;2023-01-25T10:20:53;102852.03;;;0.86;100.00
16481;BME280;44634;54.110;12.138;2023-01-25T10:23:46;102829.16;;;1.06;100.00
16481;BME280;44634;54.110;12.138;2023-01-25T10:26:22;102831.34;;;1.29;100.00
16481;BME280;44634;54.110;12.138;2023-01-25T10:28:58;102831.97;;;1.45;100.00
16481;BME280;44634;54.110;12.138;2023-01-25T10:31:35;102829.75;;;2.13;100.00
16481;BME280;44634;54.110;12.138;2023-01-25T10:34:18;102856.94;;;1.57;100.00
16481;BME280;44634;54.110;12.138;2023-01-25T10:36:51;102855.25;;;1.54;100.00
16481;BME280;44634;54.110;12.138;2023-01-25T10:39:20;102850.84;;;1.07;100.00
16481;BME280;44634;54.110;12.138;2023-01-25T10:41:50;102835.06;;;1.16;100.00
16481;BME280;44634;54.110;12.138;2023-01-25T10:44:23;102828.88;;;1.69;100.00
16481;BME280;44634;54.110;12.138;2023-01-25T10:46:56;102839.75;;;1.46;100.00
16481;BME280;44634;54.110;12.138;2023-01-25T10:49:30;102819.44;;;1.14;100.00
16481;BME280;44634;54.110;12.138;2023-01-25T10:52:15;102811.44;;;1.25;100.00
16481;BME280;44634;54.110;12.138;2023-01-25T10:54:44;102813.09;;;1.31;100.00
16481;BME280;44634;54.110;12.138;2023-01-25T10:57:16;102814.41;;;1.53;100.00
16481;BME280;44634;54.110;12.138;2023-01-25T10:59:45;102798.75;;;1.07;100.00
16481;BME280;44634;54.110;12.138;2023-01-25T11:02:43;102794.53;;;1.49;100.00
16481;BME280;44634;54.110;12.138;2023-01-25T11:05:25;102780.19;;;1.70;100.00
16481;BME280;44634;54.110;12.138;2023-01-25T11:07:54;102791.19;;;1.86;100.00
16481;BME280;44634;54.110;12.138;2023-01-25T11:10:31;102791.69;;;1.61;100.00
16481;BME280;44634;54.110;12.138;2023-01-25T11:13:18;102789.59;;;1.78;100.00
16481;BME280;44634;54.110;12.138;2023-01-25T11:15:48;102788.81;;;1.73;100.00
16481;BME280;44634;54.110;12.138;2023-01-25T11:18:19;102797.22;;;1.43;100.00
16481;BME280;44634;54.110;12.138;2023-01-25T11:21:02;102784.94;;;1.00;100.00
16481;BME280;44634;54.110;12.138;2023-01-25T11:23:32;102758.97;;;1.43;100.00
16481;BME280;44634;54.110;12.138;2023-01-25T11:26:11;102740.78;;;1.42;100.00
16481;BME280;44634;54.110;12.138;2023-01-25T11:28:40;102750.09;;;1.09;100.00
16481;BME280;44634;54.110;12.138;2023-01-25T11:31:10;102722.22;;;1.57;100.00
16481;BME280;44634;54.110;12.138;2023-01-25T11:33:39;102738.41;;;1.30;100.00
16481;BME280;44634;54.110;12.138;2023-01-25T11:36:21;102733.91;;;1.38;100.00
16481;BME280;44634;54.110;12.138;2023-01-25T11:41:54;102717.19;;;1.91;100.00
16481;BME280;44634;54.110;12.138;2023-01-25T11:44:48;102740.03;;;1.35;100.00
16481;BME280;44634;54.110;12.138;2023-01-25T11:47:35;102707.19;;;1.27;100.00
16481;BME280;44634;54.110;12.138;2023-01-25T11:50:12;102716.22;;;1.09;100.00
16481;BME280;44634;54.110;12.138;2023-01-25T11:53:02;102679.00;;;1.47;100.00
16481;BME280;44634;54.110;12.138;2023-01-25T11:55:39;102683.66;;;1.30;100.00
16481;BME280;44634;54.110;12.138;2023-01-25T11:58:25;102664.72;;;1.65;100.00
16481;BME280;44634;54.110;12.138;2023-01-25T12:01:08;102660.72;;;1.48;100.00
16481;BME280;44634;54.110;12.138;2023-01-25T12:04:15;102654.22;;;2.06;100.00
16481;BME280;44634;54.110;12.138;2023-01-25T12:06:57;102665.84;;;2.29;100.00
16481;BME280;44634;54.110;12.138;2023-01-25T12:09:38;102680.06;;;2.16;100.00
16481;BME280;44634;54.110;12.138;2023-01-25T12:12:20;102677.72;;;2.42;100.00
16481;BME280;44634;54.110;12.138;2023-01-25T12:15:05;102693.25;;;2.48;100.00
16481;BME280;44634;54.110;12.138;2023-01-25T12:17:46;102710.41;;;2.57;100.00
16481;BME280;44634;54.110;12.138;2023-01-25T12:20:30;102704.38;;;2.19;100.00
16481;BME280;44634;54.110;12.138;2023-01-25T12:23:20;102694.66;;;2.24;100.00
16481;BME280;44634;54.110;12.138;2023-01-25T12:26:04;102713.47;;;1.61;100.00
16481;BME280;44634;54.110;12.138;2023-01-25T12:28:38;102684.41;;;2.18;100.00
16481;BME280;44634;54.110;12.138;2023-01-25T12:31:11;102683.16;;;2.33;100.00
16481;BME280;44634;54.110;12.138;2023-01-25T12:33:44;102681.16;;;2.07;100.00
16481;BME280;44634;54.110;12.138;2023-01-25T12:36:17;102688.94;;;1.70;100.00
16481;BME280;44634;54.110;12.138;2023-01-25T12:38:49;102684.50;;;1.75;100.00
16481;BME280;44634;54.110;12.138;2023-01-25T12:41:26;102673.41;;;2.04;100.00
16481;BME280;44634;54.110;12.138;2023-01-25T12:44:05;102672.72;;;1.56;100.00
16481;BME280;44634;54.110;12.138;2023-01-25T12:46:39;102666.66;;;1.55;100.00
16481;BME280;44634;54.110;12.138;2023-01-25T12:49:16;102658.03;;;1.52;100.00
16481;BME280;44634;54.110;12.138;2023-01-25T12:51:47;102649.81;;;1.70;100.00
16481;BME280;44634;54.110;12.138;2023-01-25T12:54:19;102646.25;;;1.75;100.00
16481;BME280;44634;54.110;12.138;2023-01-25T12:56:57;102652.84;;;1.08;100.00
16481;BME280;44634;54.110;12.138;2023-01-25T12:59:34;102630.13;;;1.57;100.00
16481;BME280;44634;54.110;12.138;2023-01-25T13:02:19;102622.59;;;2.20;100.00